Kezdőlap
METAR-TAF:

METAR-TAF

Repülőterek :

Agadez, Niger

földrajzi szélesség: 16-58N, földrajzi hosszúság: 007-59E, magasság: 501 m

Jelenlegi meteorológiai megfigyelések

A jelentés 38 perccel ezelõtt készült, 09:00 UTC
Keleti szél 17 kt
Hőmérséklet 27°C
Páratartalom 18%
Légköri nyomás 1018 hPa
Látótávolság 10 km, vagy több
felhőtlen 1500 m magasságban, és nincs gomolyfelhõ

METAR: DRZA 090900Z 10017KT CAVOK 27/01 Q1018

Idő: 10:38 (09:38 UTC)

Előrejelzés

A jelentés 4 órával és 38 perccel ezelõtt készült, 05:00 UTC
Az előrejelzés 09-én 06 óra UTC és 10-én 06 óra UTC között érvényes
Keleti szél 15 kt
Látótávolság: 6000 m
09-én 10 óra UTC és 09-én 14 óra UTC között ideiglenes
Keleti szél 25 kt

TAF: DRZA 090500Z 0906/1006 10015KT 6000 NSC TEMPO 0910/0914 10025KT

Meteorológiai megfigyelések és előrejelzések több, mint 4000 repülőtéren (METAR és TAF jelentéseket).

A térképen piros és sárga pontok jelzik az elérhető meteorológiai állomásokat.

Mozgassa az egeret a pont fölött, hogy megjelenjen az állomás neve.

Azután kattintson az időjárási megfigyelések és előrejelzések megtekintéséhez.

A térkép megváltoztatása: kattintson a fekete keresztel jelölt zöld gombra ráközelítéshez, a vonallal jelölt zöld gombra távolításhoz, vagy a zöld nyilakra a szomszédos térképek eléréséhez.


METAR-TAF: